Richard Lloyd Jones Jr Airport
KRVS : now visible

Airfield :











YOU CAN JOIN US ON...

 
LOGIN :

Register | Disclaimer

   EN    FR    IT 

 









Legend :    VFR   Marginal VFR   IFR   Intensive IFR   Very Intensive IFR
Visi :
Ceiling :
>= 8 km
>= 3000ft
5 to 8 km
1000 to 3000 ft
1500m to 5 km
500 to 1000 ft
800 to 1500m
200 to 500 ft
< 800m
< 200 ft
Symbols :   Thunderstorms  Fog  Heavy snow  Heavy precipitations  Wind > 20 kt






- Airport Elevation : 638 ft


KRVS - Richard Lloyd Jones Jr

CURRENT METAR :
  • 121853Z 19012G24KT 10SM CLR 13/M02 A3013 RMK AO2 SLP206 T01281017

EXPIRED METARs :
  • 121753Z 19013KT 10SM CLR 11/M02 A3019 RMK AO2 SLP229 T01111017 10111 20044 58029
  • 121653Z 19015G22KT 10SM CLR 10/M02 A3024 RMK AO2 SLP245 T01001017

TAF KRVS
Valid from the 12 at 18:00 until the 13 at 18:00 UTC


121731Z 1218/1318 19015G22KT P6SM SCT250
FM122000 18010KT P6SM SKC
FM130000 18003KT P6SM OVC250



MET'MAP, your aeronautical weather chart ! - Copyright ORBIFLY December 2007 - Disclaimer

ORBIFLY MET'MAP TEAM :

Programming & Development : Alexandra Zaïnal
Concept & original design : Baudouin d'Aumeries
Assistance for programming : Marc-Olivier Méhu
Technical & hardware support : Manuel Goepfert

Contact : metmap@orbifly.com




SOURCES & CREDITS :

   NOAA       Earth
Advisory